Concho, Arizona
Current Conditions -  °F | °C
As of 9:54 AM on Saturday 25 Oct 2014 (Local Time) from KSJN Reporting Station
Clear Clear  
Wind Chill: 64°   Ceiling: Unl
Heat Index: 64°   Visibility: 10mi
Dew Point: 39°   Wind: 0mph
Humidity: 40%   Direction: NA
Pressure: 30.33"   Gusts: NA
Location:  34.48°N, 109.61°W
Report Text: KSJN 251654Z AUTO 00000KT 10SM CLR 18/04 A3033 RMK AO2 SLP204 T01780039
Loading
Personal Weather Stations






























Interactive Weather Map
Tropical Storm Tracking
New forecast layout! Learn more

10-Day Weather Forecast

Advertisements
Track Severe Weather on mobile